createdAt,value
2022-11-18T00:03:15.572Z,997.93
2022-11-18T00:08:15.694Z,997.95
2022-11-18T00:13:15.800Z,997.85
2022-11-18T00:18:12.900Z,997.74
2022-11-18T00:23:16.011Z,997.56
2022-11-18T00:28:17.100Z,997.45
2022-11-18T00:33:19.195Z,997.50
2022-11-18T00:38:19.321Z,997.53
2022-11-18T00:43:18.486Z,997.50
2022-11-18T00:48:19.572Z,997.41
2022-11-18T00:53:21.762Z,997.43
2022-11-18T00:58:21.835Z,997.41
2022-11-18T01:03:21.943Z,997.40
2022-11-18T01:08:21.062Z,997.45
2022-11-18T01:13:22.187Z,997.36
2022-11-18T01:18:24.276Z,997.49
2022-11-18T01:23:24.468Z,997.78
2022-11-18T01:28:24.328Z,997.85
2022-11-18T01:33:24.512Z,997.86
2022-11-18T01:38:23.672Z,997.79
2022-11-18T01:43:25.835Z,997.97
2022-11-18T01:48:24.911Z,998.13
2022-11-18T01:53:26.002Z,998.21
2022-11-18T01:58:27.101Z,998.31
2022-11-18T02:03:29.235Z,998.49
2022-11-18T02:08:29.311Z,998.68
2022-11-18T02:13:28.720Z,998.93
2022-11-18T02:18:30.806Z,999.13
2022-11-18T02:23:30.948Z,999.51
2022-11-18T02:28:30.038Z,999.59
2022-11-18T02:33:32.145Z,999.69
2022-11-18T02:38:32.232Z,999.28
2022-11-18T02:43:32.340Z,998.96
2022-11-18T02:48:31.511Z,999.13
2022-11-18T02:53:33.578Z,999.21
2022-11-18T02:58:34.832Z,999.16
2022-11-18T03:03:33.991Z,999.23
2022-11-18T03:08:36.086Z,999.11
2022-11-18T03:13:35.248Z,998.98
2022-11-18T03:18:36.383Z,998.98
2022-11-18T03:23:37.903Z,998.96
2022-11-18T03:28:37.071Z,998.76
2022-11-18T03:33:39.198Z,999.02
2022-11-18T03:38:38.338Z,999.10
2022-11-18T03:43:39.476Z,999.22
2022-11-18T03:48:40.601Z,999.24
2022-11-18T03:53:42.774Z,999.33
2022-11-18T03:58:41.862Z,999.38
2022-11-18T04:03:43.990Z,999.45
2022-11-18T04:08:43.081Z,999.46
2022-11-18T04:13:44.167Z,999.48
2022-11-18T04:18:45.307Z,999.54
2022-11-18T04:23:46.443Z,999.59
2022-11-18T04:28:48.805Z,999.71
2022-11-18T04:33:50.934Z,999.59
2022-11-18T04:38:48.054Z,999.62
2022-11-18T04:43:50.330Z,999.82
2022-11-18T04:48:49.474Z,999.70
2022-11-18T04:53:50.552Z,999.82
2022-11-18T04:58:52.652Z,999.84
2022-11-18T05:03:51.824Z,999.98
2022-11-18T05:08:52.884Z,1000.09
2022-11-18T05:13:54.068Z,1000.01
2022-11-18T05:18:55.173Z,1000.08
2022-11-18T05:23:57.326Z,1000.08
2022-11-18T05:28:56.446Z,1000.15
2022-11-18T05:33:57.590Z,1000.19
2022-11-18T05:38:58.749Z,1000.28
2022-11-18T05:44:00.011Z,1000.32
2022-11-18T05:49:02.166Z,1000.31
2022-11-18T05:54:01.409Z,1000.51
2022-11-18T05:59:02.583Z,1000.39
2022-11-18T06:04:03.718Z,1000.37
2022-11-18T06:09:04.998Z,1000.49
2022-11-18T06:14:07.188Z,1000.50
2022-11-18T06:19:06.304Z,1001.11
2022-11-18T06:24:07.415Z,1001.23
2022-11-18T06:29:08.489Z,1000.93
